• Join FlightAware (Why Join?)
  • Login
  • US Flag 
02:41AM EST


 

Airport Tracker/Info


-or-


 

Live Flight TrackerFlight Track Log ✈ RPA4886 ✈ 29-Apr-2013 ✈ KPVD - KIAD

Flight Track Log - Related Links

Times and Time Zones

All times are in EDT time to prevent confusion due to time zone crossing. See the RPA4886 flight status page for this flight to view local times or setup timezone preferences in your user account.

Time Position Orientation Groundspeed Altitude Reporting Facility
EDT Latitude Longitude Course Direction KTS MPH feet Rate Location/Type
07:15PM 41.7319 -71.5444 289° West 235 270 3,700  Level Boston Center
07:16PM 41.7806 -71.6106 315° West 235 270 6,100 2,520 Climbing Boston Center
07:17PM 41.8289 -71.6794 313° West 251 289 8,800 2,460 Climbing Boston Center
07:18PM 41.8544 -71.7600 293° West 251 289 11,100 2,400 Climbing Boston Center
07:19PM 41.8861 -71.8544 294° West 257 296 13,600 2,100 Climbing Boston Center
07:20PM 41.9139 -71.9519 291° West 270 311 15,400 1,740 Climbing Boston Center
07:21PM 41.9411 -72.0353 294° West 275 316 17,100 1,620 Climbing Boston Center
07:22PM 41.9747 -72.1386 292° West 275 316 18,700 1,440 Climbing Boston Center
07:23PM 41.8867 -72.1430 292° West  Level Estimated
07:23PM 42.0042 -72.2250 295° West 275 316 20,000  Level Boston Center
07:24PM 42.0336 -72.3200 293° West 275 316 21,400 960 Climbing Boston Center
07:25PM 42.0669 -72.4206 294° West 275 316 22,000 300 Climbing Boston Center
07:26PM 42.1003 -72.5297 292° West 293 337 22,000  Level Boston Center
07:27PM 42.1397 -72.6500 294° West 324 373 22,000  Level Boston Center
07:28PM 42.1603 -72.7733 283° West 338 389 22,000  Level Boston Center
07:29PM 42.1494 -72.9050 264° West 348 400 22,000  Level Boston Center
07:30PM 42.1403 -73.0364 265° West 348 400 22,000  Level Boston Center
07:31PM 42.1314 -73.1625 265° West 353 406 22,000  Level Boston Center
07:32PM 42.1242 -73.2911 266° West 348 400 22,000 -300 Level Boston Center
07:33PM 42.1192 -73.4114 267° West 343 395 21,500 -660 Descending Boston Center
07:34PM 42.1075 -73.5369 263° West 343 395 20,700 -900 Descending Boston Center
07:35PM 42.0978 -73.6683 264° West 349 402 19,800 -900 Descending Boston Center
07:36PM 42.0839 -73.8025 262° West 354 407 18,900 -900 Descending Boston Center
07:37PM 42.0489 -73.9192 248° West 354 407 18,000 -900 Descending Boston Center
07:38PM 42.0014 -74.0408 242° Southwest 337 388 17,100 -960 Descending Boston Center
07:39PM 41.9622 -74.1544 245° Southwest 342 394 16,100 -540 Descending Boston Center
07:40PM 41.9189 -74.2703 243° Southwest 342 394 16,100  Level Boston Center
07:41PM 41.8794 -74.3836 245° Southwest 336 387 16,100 -60 Level Boston Center
07:44PM 41.7806 -74.6597 244° Southwest 328 377 16,000 -60 Descending New York Center
07:45PM 41.7419 -74.7575 242° Southwest 339 390 16,000  Level New York Center
07:46PM 41.6961 -74.8825 244° Southwest 339 390 16,000  Level New York Center
07:47PM 41.6564 -75.0022 246° West 346 398 16,000 -60 Level New York Center
07:48PM 41.6128 -75.1186 243° Southwest 351 404 15,900 -60 Descending New York Center
07:49PM 41.5733 -75.2242 243° Southwest 356 410 15,900  Level New York Center
07:50PM 41.5314 -75.3378 244° Southwest 351 404 16,000  Climbing New York Center
07:51PM 41.4850 -75.4619 244° Southwest 351 404 16,000  Level New York Center
07:52PM 41.4408 -75.5753 243° Southwest 351 404 16,000  Level New York Center
07:53PM 41.3944 -75.6908 242° Southwest 357 411 16,000  Level New York Center
07:54PM 41.3481 -75.8061 242° Southwest 357 411 16,000  Level New York Center
07:55PM 41.3036 -75.9217 243° Southwest 357 411 16,000  Level New York Center
07:56PM 41.2636 -76.0208 242° Southwest 357 411 16,000  Level New York Center
07:57PM 41.2122 -76.1464 241° Southwest 357 411 16,100  Climbing New York Center
07:58PM 41.1675 -76.2614 243° Southwest 357 411 16,100 -60 Level New York Center
07:59PM 41.1267 -76.3764 245° Southwest 357 411 16,000 -60 Descending New York Center
08:00PM 41.0906 -76.4753 244° Southwest 349 402 16,000  Level New York Center
08:01PM 41.0450 -76.5981 244° Southwest 349 402 16,000  Level New York Center
08:02PM 40.9967 -76.6931 236° Southwest 349 402 16,000  Level New York Center
08:03PM 40.9136 -76.7708 215° Southwest 342 394 16,000  Level New York Center
08:04PM 40.8347 -76.8436 215° Southwest 347 399 16,000  Level New York Center
08:05PM 40.7506 -76.9019 208° Southwest 347 399 16,000  Level New York Center
08:06PM 40.6556 -76.9261 191° South 346 398 16,100  Climbing New York Center
08:07PM 40.5642 -76.9564 194° South 346 398 16,100 -60 Level New York Center
08:08PM 40.4711 -76.9833 192° South 340 391 16,000  Descending New York Center
08:09PM 40.3758 -77.0131 193° South 345 397 16,100 -360 Climbing New York Center
08:10PM 40.2167 -77.0667 194° South 356 410 15,100 -660 Descending Potomac TRACON
08:11PM 40.1833 -77.1500 242° Southwest 324 373 14,500 -900 Descending Potomac TRACON
08:12PM 40.1833 -77.2667 270° West 322 371 13,400 -1,080 Descending Potomac TRACON
08:13PM 40.1333 -77.3667 237° Southwest 328 377 12,400 -1,080 Descending Potomac TRACON
08:14PM 40.0333 -77.3500 173° South 323 372 11,300 -1,260 Descending Potomac TRACON
08:15PM 39.9667 -77.3167 159° South 309 356 10,100 -720 Descending Potomac TRACON
08:16PM 39.8833 -77.3000 171° South 317 365 10,000 -60 Descending Potomac TRACON
08:17PM 39.7833 -77.2833 173° South 315 362 10,000 -480 Level Potomac TRACON
08:18PM 39.7167 -77.3000 191° South 280 322 9,100 -660 Descending Potomac TRACON
08:19PM 39.6500 -77.3333 201° Southwest 289 333 8,800 -720 Descending Potomac TRACON
08:20PM 39.5833 -77.3833 210° Southwest 279 321 7,800 -900 Descending Potomac TRACON
08:21PM 39.5500 -77.4667 243° Southwest 277 319 7,000 -420 Descending Potomac TRACON
08:22PM 39.4833 -77.5000 201° Southwest 268 308 7,000  Level Potomac TRACON
08:23PM 39.4000 -77.4667 163° South 269 310 7,000  Level Potomac TRACON
08:24PM 39.3333 -77.4500 169° South 271 312 7,000 -540 Level Potomac TRACON
08:25PM 39.2500 -77.4500 180° South 262 302 6,000 -1,200 Descending Potomac TRACON
08:26PM 39.2000 -77.4500 180° South 200 230 4,700 -1,140 Descending Potomac TRACON
08:27PM 39.1500 -77.4500 180° South 166 191 3,800 -900 Descending Potomac TRACON
08:28PM 39.1000 -77.4500 180° South 163 188 2,900 -900 Descending Potomac TRACON
08:29PM 39.0667 -77.4500 180° South 158 182 2,000 -900 Descending Potomac TRACON
08:30PM 39.0167 -77.4667 195° South 151 174 1,200 -840 Descending Potomac TRACON
08:32PM 38.9474 -77.4599 90° East  Level Estimated